createdAt,value
2022-11-19T00:02:18.003Z,2.77
2022-11-19T00:04:47.090Z,2.50
2022-11-19T00:07:15.524Z,2.60
2022-11-19T00:09:44.241Z,3.13
2022-11-19T00:12:30.914Z,3.00
2022-11-19T00:15:00.618Z,2.70
2022-11-19T00:17:29.828Z,2.33
2022-11-19T00:19:58.173Z,2.80
2022-11-19T00:22:26.972Z,2.80
2022-11-19T00:24:55.363Z,3.37
2022-11-19T00:27:24.362Z,3.20
2022-11-19T00:29:52.744Z,3.07
2022-11-19T00:32:23.297Z,2.67
2022-11-19T00:34:51.708Z,3.00
2022-11-19T00:37:20.971Z,2.40
2022-11-19T00:39:49.762Z,2.60
2022-11-19T00:42:18.181Z,3.17
2022-11-19T00:44:47.665Z,3.10
2022-11-19T00:47:16.370Z,2.93
2022-11-19T00:49:47.175Z,2.50
2022-11-19T00:52:16.046Z,2.90
2022-11-19T00:54:44.413Z,2.00
2022-11-19T00:57:13.692Z,2.13
2022-11-19T00:59:42.142Z,2.10
2022-11-19T01:02:10.950Z,2.50
2022-11-19T01:04:39.500Z,2.70
2022-11-19T01:07:09.273Z,2.10
2022-11-19T01:09:37.995Z,2.43
2022-11-19T01:12:07.018Z,2.40
2022-11-19T01:14:35.535Z,2.60
2022-11-19T01:17:03.936Z,2.33
2022-11-19T01:19:32.956Z,3.90
2022-11-19T01:22:01.829Z,2.87
2022-11-19T01:24:31.849Z,1.87
2022-11-19T01:27:01.123Z,1.83
2022-11-19T01:29:30.049Z,1.97
2022-11-19T01:31:58.447Z,1.60
2022-11-19T01:34:27.812Z,2.40
2022-11-19T01:36:56.236Z,2.63
2022-11-19T01:39:25.602Z,3.20
2022-11-19T01:41:55.328Z,1.60
2022-11-19T01:45:00.724Z,1.60
2022-11-19T01:47:29.565Z,1.50
2022-11-19T01:49:58.022Z,1.57
2022-11-19T01:52:27.075Z,1.80
2022-11-19T01:54:56.738Z,1.73
2022-11-19T01:57:27.006Z,1.80
2022-11-19T01:59:55.615Z,1.53
2022-11-19T02:02:25.228Z,1.83
2022-11-19T02:04:57.165Z,1.80
2022-11-19T02:07:29.283Z,1.50
2022-11-19T02:10:01.424Z,1.77
2022-11-19T02:12:43.142Z,1.80
2022-11-19T02:15:23.046Z,1.40
2022-11-19T02:18:30.690Z,1.50
2022-11-19T02:21:06.710Z,1.73
2022-11-19T02:24:02.108Z,1.77
2022-11-19T02:27:00.213Z,1.67
2022-11-19T02:30:06.546Z,1.50
2022-11-19T02:32:39.757Z,1.27
2022-11-19T02:35:19.372Z,1.70
2022-11-19T02:37:54.896Z,1.37
2022-11-19T02:40:27.579Z,1.40
2022-11-19T02:43:05.186Z,1.70
2022-11-19T02:45:38.923Z,1.70
2022-11-19T02:48:13.466Z,2.43
2022-11-19T02:50:46.353Z,2.20
2022-11-19T02:53:15.606Z,2.13
2022-11-19T02:56:07.167Z,2.00
2022-11-19T02:58:56.325Z,2.13
2022-11-19T03:01:47.571Z,2.10
2022-11-19T03:04:31.209Z,2.80
2022-11-19T03:07:03.833Z,2.70
2022-11-19T03:09:35.413Z,2.47
2022-11-19T03:12:13.326Z,2.70
2022-11-19T03:15:08.874Z,3.00
2022-11-19T03:17:52.725Z,2.23
2022-11-19T03:20:26.450Z,2.70
2022-11-19T03:23:00.134Z,2.60
2022-11-19T03:25:32.986Z,2.83
2022-11-19T03:28:04.734Z,3.03
2022-11-19T03:30:33.792Z,2.40
2022-11-19T03:33:08.112Z,2.60
2022-11-19T03:35:44.264Z,2.40
2022-11-19T03:38:17.875Z,2.50
2022-11-19T03:40:49.322Z,2.30
2022-11-19T03:43:21.439Z,2.50
2022-11-19T03:45:53.164Z,2.23
2022-11-19T03:48:25.293Z,2.53
2022-11-19T03:50:58.471Z,2.63
2022-11-19T03:53:29.234Z,2.50
2022-11-19T03:56:01.411Z,2.90
2022-11-19T03:58:35.437Z,2.90
2022-11-19T04:01:03.821Z,2.87
2022-11-19T04:03:34.685Z,2.80
2022-11-19T04:06:03.436Z,2.80
2022-11-19T04:08:33.299Z,2.70
2022-11-19T04:13:29.942Z,4.70
2022-11-19T04:15:58.333Z,5.03
2022-11-19T04:18:27.558Z,4.57
2022-11-19T04:20:57.339Z,3.87
2022-11-19T04:23:25.778Z,2.10
2022-11-19T04:25:54.693Z,2.13
2022-11-19T04:28:23.376Z,1.97
2022-11-19T04:30:52.211Z,2.33
2022-11-19T04:33:20.648Z,1.90
2022-11-19T04:35:49.662Z,2.20
2022-11-19T04:38:20.038Z,2.00
2022-11-19T04:40:49.129Z,2.60
2022-11-19T04:43:17.519Z,2.83
2022-11-19T04:45:46.267Z,2.50
2022-11-19T04:48:15.093Z,2.60
2022-11-19T04:50:43.597Z,3.23
2022-11-19T04:53:12.883Z,3.53
2022-11-19T04:55:43.302Z,3.53
2022-11-19T04:58:11.776Z,3.10
2022-11-19T05:00:40.711Z,3.50
2022-11-19T05:03:09.619Z,3.70
2022-11-19T05:05:38.051Z,3.47
2022-11-19T05:08:07.555Z,3.60
2022-11-19T05:10:36.779Z,4.17
2022-11-19T05:13:07.198Z,3.80
2022-11-19T05:15:35.747Z,3.97
2022-11-19T05:18:04.648Z,4.40
2022-11-19T05:20:33.565Z,4.67
2022-11-19T05:23:02.411Z,4.67
2022-11-19T05:25:30.936Z,5.30
2022-11-19T05:28:00.149Z,5.53
2022-11-19T05:30:29.912Z,5.87
2022-11-19T05:32:59.279Z,6.30
2022-11-19T05:35:27.762Z,6.03
2022-11-19T05:37:57.114Z,5.00
2022-11-19T05:40:25.568Z,4.43
2022-11-19T05:42:54.075Z,5.30
2022-11-19T05:45:22.900Z,10.17
2022-11-19T05:47:56.462Z,6.73
2022-11-19T05:50:24.877Z,5.97
2022-11-19T05:52:54.086Z,5.47
2022-11-19T05:55:22.881Z,5.47
2022-11-19T05:57:51.327Z,5.77
2022-11-19T06:00:21.727Z,5.23
2022-11-19T06:02:50.611Z,5.13
2022-11-19T06:05:20.335Z,5.27
2022-11-19T06:07:48.770Z,5.43
2022-11-19T06:10:17.461Z,5.10
2022-11-19T06:12:46.569Z,6.60
2022-11-19T06:15:15.804Z,6.83
2022-11-19T06:17:44.245Z,6.57
2022-11-19T06:20:13.127Z,5.90
2022-11-19T06:22:43.405Z,6.07
2022-11-19T06:25:11.844Z,6.73
2022-11-19T06:27:40.930Z,6.53
2022-11-19T06:30:10.946Z,6.73
2022-11-19T06:32:39.860Z,7.00
2022-11-19T06:35:08.931Z,6.50
2022-11-19T06:37:38.319Z,6.70
2022-11-19T06:40:09.607Z,6.17
2022-11-19T06:42:38.639Z,6.20
2022-11-19T06:45:09.423Z,6.10
2022-11-19T06:47:39.563Z,5.50
2022-11-19T06:50:10.108Z,6.20
2022-11-19T06:52:39.289Z,6.03
2022-11-19T06:55:10.722Z,5.90
2022-11-19T06:57:39.202Z,6.13
2022-11-19T07:00:09.151Z,6.07
2022-11-19T07:02:38.041Z,6.10
2022-11-19T07:05:08.130Z,5.37
2022-11-19T07:07:37.089Z,6.07
2022-11-19T07:10:07.220Z,5.23
2022-11-19T07:12:38.024Z,5.90
2022-11-19T07:15:07.933Z,5.73
2022-11-19T07:17:37.809Z,5.33
2022-11-19T07:20:08.408Z,5.57
2022-11-19T07:22:36.835Z,5.37
2022-11-19T07:25:06.222Z,5.67
2022-11-19T07:27:35.716Z,5.73
2022-11-19T07:30:07.866Z,5.43
2022-11-19T07:32:36.341Z,5.23
2022-11-19T07:35:05.377Z,10.17
2022-11-19T07:37:34.114Z,6.63
2022-11-19T07:40:02.660Z,5.30
2022-11-19T07:42:49.092Z,5.90
2022-11-19T07:45:19.981Z,4.93
2022-11-19T07:47:49.156Z,9.03
2022-11-19T07:50:18.214Z,5.00
2022-11-19T07:52:46.637Z,11.77
2022-11-19T07:55:15.502Z,6.00
2022-11-19T07:57:44.422Z,5.37
2022-11-19T08:00:14.486Z,20.23
2022-11-19T08:02:44.853Z,9.50
2022-11-19T08:05:13.964Z,11.27
2022-11-19T08:07:43.485Z,6.37
2022-11-19T08:10:12.705Z,8.57
2022-11-19T08:12:41.517Z,6.23
2022-11-19T08:15:10.870Z,6.40
2022-11-19T08:17:57.230Z,6.77
2022-11-19T08:20:26.967Z,5.13
2022-11-19T08:22:55.821Z,5.30
2022-11-19T08:25:24.439Z,6.07
2022-11-19T08:27:53.731Z,5.73
2022-11-19T08:30:22.162Z,5.70
2022-11-19T08:32:50.558Z,5.80
2022-11-19T08:35:19.392Z,5.70
2022-11-19T08:37:49.363Z,5.13
2022-11-19T08:40:18.738Z,5.17
2022-11-19T08:43:01.042Z,5.23
2022-11-19T08:45:31.860Z,5.40
2022-11-19T08:48:01.932Z,5.70
2022-11-19T08:50:31.696Z,5.40
2022-11-19T08:53:05.169Z,5.03
2022-11-19T08:55:33.938Z,5.10
2022-11-19T08:58:04.056Z,5.20
2022-11-19T09:00:34.175Z,4.90
2022-11-19T09:03:02.724Z,4.97
2022-11-19T09:05:31.474Z,4.60
2022-11-19T09:08:01.307Z,4.63
2022-11-19T09:10:30.347Z,5.63
2022-11-19T09:12:58.813Z,5.40
2022-11-19T09:15:27.567Z,6.40
2022-11-19T09:17:56.385Z,5.33
2022-11-19T09:20:25.640Z,6.00
2022-11-19T09:22:55.358Z,5.20
2022-11-19T09:25:25.235Z,5.43
2022-11-19T09:27:54.101Z,5.50
2022-11-19T09:30:22.489Z,5.50
2022-11-19T09:32:51.178Z,6.33
2022-11-19T09:35:20.277Z,6.10
2022-11-19T09:37:48.736Z,6.43
2022-11-19T09:40:21.211Z,5.80
2022-11-19T09:43:01.858Z,7.10
2022-11-19T09:45:42.770Z,6.20
2022-11-19T09:48:26.037Z,6.47
2022-11-19T09:51:00.090Z,6.60
2022-11-19T09:53:34.265Z,6.53
2022-11-19T09:56:03.678Z,7.80
2022-11-19T09:58:39.758Z,7.73
2022-11-19T10:01:11.762Z,7.07
2022-11-19T10:03:42.693Z,8.17
2022-11-19T10:06:26.661Z,7.00
2022-11-19T10:09:12.115Z,8.47
2022-11-19T10:11:52.177Z,7.53
2022-11-19T10:14:41.897Z,6.57
2022-11-19T10:17:20.912Z,6.90
2022-11-19T10:20:04.873Z,7.27
2022-11-19T10:22:40.023Z,6.83
2022-11-19T10:25:18.053Z,6.83
2022-11-19T10:27:49.998Z,6.40
2022-11-19T10:30:23.577Z,5.83
2022-11-19T10:32:58.308Z,7.57
2022-11-19T10:35:31.136Z,7.87
2022-11-19T10:38:02.328Z,7.30
2022-11-19T10:40:36.611Z,9.73
2022-11-19T10:43:23.212Z,7.77
2022-11-19T10:45:54.748Z,7.33
2022-11-19T10:48:25.784Z,7.37
2022-11-19T10:50:56.184Z,6.77
2022-11-19T10:53:31.818Z,6.63
2022-11-19T10:56:04.671Z,6.43
2022-11-19T10:58:37.961Z,8.57
2022-11-19T11:01:17.745Z,6.80
2022-11-19T11:03:50.072Z,7.97
2022-11-19T11:06:19.283Z,7.63
2022-11-19T11:08:52.554Z,8.27
2022-11-19T11:11:26.321Z,7.90
2022-11-19T11:14:11.740Z,9.00
2022-11-19T11:16:47.888Z,8.20
2022-11-19T11:19:19.652Z,7.53
2022-11-19T11:21:53.664Z,7.90
2022-11-19T11:24:23.517Z,9.43
2022-11-19T11:27:22.589Z,9.93
2022-11-19T11:30:04.802Z,9.83
2022-11-19T11:32:35.435Z,9.50
2022-11-19T11:35:08.209Z,10.73
2022-11-19T11:37:38.415Z,11.03
2022-11-19T11:40:09.152Z,10.00
2022-11-19T11:42:37.586Z,11.63
2022-11-19T11:45:09.407Z,11.37
2022-11-19T11:47:41.260Z,11.37
2022-11-19T11:50:16.597Z,12.50
2022-11-19T11:52:47.839Z,13.00
2022-11-19T11:55:32.109Z,13.30
2022-11-19T11:58:03.065Z,12.17
2022-11-19T12:00:35.098Z,13.33
2022-11-19T12:03:08.367Z,12.97
2022-11-19T12:05:48.189Z,12.33
2022-11-19T12:08:32.290Z,13.53
2022-11-19T12:11:08.530Z,12.33
2022-11-19T12:13:52.467Z,12.93
2022-11-19T12:16:33.533Z,12.47
2022-11-19T12:19:18.223Z,14.13
2022-11-19T12:21:57.258Z,15.13
2022-11-19T12:24:42.217Z,15.67
2022-11-19T12:27:24.032Z,15.50
2022-11-19T12:30:05.292Z,15.37
2022-11-19T12:32:54.775Z,16.17
2022-11-19T12:35:45.971Z,16.83
2022-11-19T12:38:40.475Z,19.13
2022-11-19T12:41:24.057Z,16.93
2022-11-19T12:43:57.438Z,20.77
2022-11-19T12:46:40.480Z,18.07
2022-11-19T12:49:29.500Z,19.23
2022-11-19T12:52:06.864Z,18.23
2022-11-19T12:54:53.267Z,21.07
2022-11-19T12:57:40.466Z,18.80
2022-11-19T13:00:14.351Z,18.77
2022-11-19T13:02:53.119Z,18.87
2022-11-19T13:05:26.337Z,18.90
2022-11-19T13:08:01.490Z,18.73
2022-11-19T13:10:37.110Z,18.00
2022-11-19T13:13:10.490Z,18.10
2022-11-19T13:15:41.146Z,19.80
2022-11-19T13:18:16.681Z,19.50
2022-11-19T13:20:50.684Z,18.80
2022-11-19T13:23:25.398Z,19.43
2022-11-19T13:25:59.421Z,20.50
2022-11-19T13:28:36.259Z,20.43
2022-11-19T13:31:08.591Z,21.53
2022-11-19T13:33:45.003Z,20.97
2022-11-19T13:36:19.646Z,20.67
2022-11-19T13:38:54.774Z,21.03
2022-11-19T13:41:26.981Z,20.60
2022-11-19T13:44:15.461Z,21.20
2022-11-19T13:46:47.014Z,21.57
2022-11-19T13:49:22.006Z,22.13
2022-11-19T13:51:53.847Z,21.70
2022-11-19T13:54:26.553Z,21.40
2022-11-19T13:56:58.174Z,21.80
2022-11-19T13:59:33.670Z,24.80
2022-11-19T14:02:38.771Z,25.90
2022-11-19T14:05:35.059Z,26.63
2022-11-19T14:08:18.540Z,25.20
2022-11-19T14:11:04.622Z,23.20
2022-11-19T14:13:46.884Z,22.53
2022-11-19T14:16:43.984Z,23.50
2022-11-19T14:19:33.317Z,23.83
2022-11-19T14:22:39.867Z,22.07
2022-11-19T14:25:28.282Z,25.37
2022-11-19T14:27:57.382Z,23.40
2022-11-19T14:31:03.113Z,21.90
2022-11-19T14:34:01.364Z,23.07
2022-11-19T14:36:42.887Z,23.60
2022-11-19T14:39:19.124Z,24.20
2022-11-19T14:42:13.346Z,22.97
2022-11-19T14:44:42.411Z,22.97
2022-11-19T14:47:34.565Z,23.00
2022-11-19T14:50:06.830Z,23.93
2022-11-19T14:52:39.702Z,22.57
2022-11-19T14:55:22.845Z,22.20
2022-11-19T14:57:58.499Z,22.13
2022-11-19T15:00:31.428Z,23.03
2022-11-19T15:03:02.387Z,23.53
2022-11-19T15:05:34.629Z,21.90
2022-11-19T15:08:44.295Z,22.33
2022-11-19T15:11:14.327Z,20.70
2022-11-19T15:13:46.424Z,22.57
2022-11-19T15:16:17.933Z,20.60
2022-11-19T15:19:22.738Z,22.33
2022-11-19T15:22:33.852Z,22.37
2022-11-19T15:25:31.016Z,22.50
2022-11-19T15:28:07.886Z,22.37
2022-11-19T15:30:53.615Z,22.77
2022-11-19T15:33:56.956Z,24.90
2022-11-19T15:36:31.806Z,22.97
2022-11-19T15:39:06.006Z,22.67
2022-11-19T15:41:39.978Z,22.67
2022-11-19T15:44:14.082Z,22.87
2022-11-19T15:46:52.157Z,24.50
2022-11-19T15:49:24.378Z,24.43
2022-11-19T15:52:06.081Z,29.07
2022-11-19T15:54:36.299Z,29.03
2022-11-19T15:57:07.833Z,24.60
2022-11-19T15:59:39.781Z,25.17
2022-11-19T16:02:22.043Z,26.30
2022-11-19T16:04:51.375Z,25.10
2022-11-19T16:07:25.877Z,26.77
2022-11-19T16:09:55.635Z,27.13
2022-11-19T16:12:42.993Z,25.57
2022-11-19T16:15:38.019Z,28.20
2022-11-19T16:18:15.690Z,34.90
2022-11-19T16:20:47.779Z,27.87
2022-11-19T16:23:22.373Z,31.07
2022-11-19T16:25:51.633Z,26.53
2022-11-19T16:28:24.513Z,28.03
2022-11-19T16:30:54.854Z,26.93
2022-11-19T16:33:27.659Z,28.13
2022-11-19T16:36:14.055Z,29.00
2022-11-19T16:38:44.450Z,28.00
2022-11-19T16:41:31.535Z,25.80
2022-11-19T16:44:00.509Z,27.47
2022-11-19T16:46:31.499Z,29.07
2022-11-19T16:49:03.395Z,29.07
2022-11-19T16:51:37.737Z,34.37
2022-11-19T16:54:08.595Z,41.10
2022-11-19T16:56:41.941Z,33.57
2022-11-19T16:59:19.170Z,24.93
2022-11-19T17:01:56.959Z,26.87
2022-11-19T17:04:30.182Z,29.30
2022-11-19T17:06:59.897Z,26.20
2022-11-19T17:09:44.308Z,25.17
2022-11-19T17:12:27.737Z,24.40
2022-11-19T17:14:59.428Z,28.37
2022-11-19T17:17:40.223Z,28.87
2022-11-19T17:21:00.294Z,25.43
2022-11-19T17:23:32.280Z,25.03
2022-11-19T17:26:03.137Z,25.03
2022-11-19T17:28:38.372Z,31.83
2022-11-19T17:31:15.998Z,29.53
2022-11-19T17:33:52.038Z,42.23
2022-11-19T17:36:22.555Z,21.10
2022-11-19T17:38:52.572Z,20.73
2022-11-19T17:41:38.427Z,20.63
2022-11-19T17:44:30.363Z,18.73
2022-11-19T17:47:00.183Z,17.77
2022-11-19T17:49:28.567Z,16.40
2022-11-19T17:51:57.922Z,16.47
2022-11-19T17:54:27.841Z,15.30
2022-11-19T17:56:56.708Z,15.10
2022-11-19T17:59:25.889Z,15.93
2022-11-19T18:01:54.369Z,14.20
2022-11-19T18:04:23.284Z,15.43
2022-11-19T18:06:51.728Z,15.00
2022-11-19T18:09:20.569Z,16.77
2022-11-19T18:11:51.452Z,14.97
2022-11-19T18:14:20.273Z,14.80
2022-11-19T18:16:50.022Z,15.67
2022-11-19T18:19:26.554Z,14.20
2022-11-19T18:21:55.787Z,15.23
2022-11-19T18:24:25.338Z,13.60
2022-11-19T18:26:55.511Z,13.93
2022-11-19T18:29:24.671Z,15.97
2022-11-19T18:31:54.151Z,15.67
2022-11-19T18:34:24.580Z,16.87
2022-11-19T18:36:53.302Z,15.50
2022-11-19T18:39:22.380Z,14.60
2022-11-19T18:41:52.704Z,16.13
2022-11-19T18:44:33.968Z,16.10
2022-11-19T18:47:03.786Z,16.87
2022-11-19T18:49:33.790Z,17.20
2022-11-19T18:52:02.381Z,15.67
2022-11-19T18:54:31.641Z,15.17
2022-11-19T18:57:00.230Z,22.57
2022-11-19T18:59:30.914Z,19.03
2022-11-19T19:01:59.631Z,19.47
2022-11-19T19:04:28.132Z,21.03
2022-11-19T19:06:59.611Z,20.37
2022-11-19T19:09:28.183Z,18.77
2022-11-19T19:12:14.328Z,18.20
2022-11-19T19:14:44.974Z,19.57
2022-11-19T19:17:15.096Z,19.17
2022-11-19T19:19:43.662Z,18.37
2022-11-19T19:22:12.902Z,16.13
2022-11-19T19:24:42.306Z,18.27
2022-11-19T19:27:11.118Z,18.37
2022-11-19T19:29:40.537Z,20.00
2022-11-19T19:32:10.300Z,23.80
2022-11-19T19:34:39.793Z,31.73
2022-11-19T19:37:08.242Z,23.43
2022-11-19T19:39:38.076Z,20.10
2022-11-19T19:42:06.771Z,20.47
2022-11-19T19:44:40.713Z,18.77
2022-11-19T19:47:10.978Z,25.10
2022-11-19T19:49:39.506Z,55.80
2022-11-19T19:52:08.914Z,22.30
2022-11-19T19:54:37.450Z,19.43
2022-11-19T19:57:06.753Z,24.63
2022-11-19T19:59:35.471Z,19.93
2022-11-19T20:02:03.892Z,22.23
2022-11-19T20:04:34.065Z,20.87
2022-11-19T20:07:03.195Z,20.67
2022-11-19T20:09:31.653Z,20.40
2022-11-19T20:12:00.942Z,20.17
2022-11-19T20:14:30.062Z,33.70
2022-11-19T20:16:58.727Z,20.50
2022-11-19T20:19:27.188Z,18.63
2022-11-19T20:21:56.921Z,20.33
2022-11-19T20:24:25.768Z,20.07
2022-11-19T20:26:55.648Z,18.80
2022-11-19T20:29:24.406Z,19.63
2022-11-19T20:31:52.893Z,16.80
2022-11-19T20:34:21.892Z,18.17
2022-11-19T20:36:50.348Z,16.93
2022-11-19T20:39:20.418Z,16.43
2022-11-19T20:42:07.976Z,14.40
2022-11-19T20:44:36.402Z,15.63
2022-11-19T20:47:05.806Z,15.67
2022-11-19T20:49:38.694Z,14.57
2022-11-19T20:52:07.920Z,13.07
2022-11-19T20:54:37.897Z,19.33
2022-11-19T20:57:07.229Z,15.47
2022-11-19T20:59:36.498Z,16.60
2022-11-19T21:02:05.357Z,17.63
2022-11-19T21:04:37.613Z,17.23
2022-11-19T21:07:07.176Z,15.43
2022-11-19T21:09:37.524Z,15.00
2022-11-19T21:12:07.182Z,15.93
2022-11-19T21:14:35.902Z,22.70
2022-11-19T21:17:04.382Z,15.57
2022-11-19T21:19:32.845Z,15.27
2022-11-19T21:22:01.811Z,15.20
2022-11-19T21:24:30.761Z,18.23
2022-11-19T21:27:00.672Z,16.30
2022-11-19T21:29:29.190Z,41.83
2022-11-19T21:31:59.007Z,31.97
2022-11-19T21:34:27.475Z,24.10
2022-11-19T21:36:58.293Z,17.20
2022-11-19T21:39:27.131Z,14.20
2022-11-19T21:41:57.146Z,14.40
2022-11-19T21:44:27.224Z,14.53
2022-11-19T21:46:55.591Z,14.27
2022-11-19T21:49:25.122Z,15.00
2022-11-19T21:51:53.506Z,15.43
2022-11-19T21:54:22.861Z,16.30
2022-11-19T21:56:51.784Z,15.03
2022-11-19T21:59:20.482Z,15.87
2022-11-19T22:01:54.749Z,14.97
2022-11-19T22:04:23.628Z,16.80
2022-11-19T22:06:52.455Z,15.77
2022-11-19T22:09:21.170Z,15.60
2022-11-19T22:11:50.696Z,16.00
2022-11-19T22:14:19.158Z,14.93
2022-11-19T22:16:48.046Z,15.77
2022-11-19T22:19:19.550Z,14.13
2022-11-19T22:21:48.709Z,14.73
2022-11-19T22:24:17.338Z,16.23
2022-11-19T22:26:47.720Z,14.63
2022-11-19T22:29:16.735Z,13.73
2022-11-19T22:31:45.216Z,14.53
2022-11-19T22:34:14.662Z,15.87
2022-11-19T22:36:44.838Z,13.80
2022-11-19T22:39:14.179Z,16.87
2022-11-19T22:41:43.002Z,19.63
2022-11-19T22:44:11.686Z,16.07
2022-11-19T22:46:40.085Z,14.57
2022-11-19T22:49:09.338Z,13.87
2022-11-19T22:51:37.932Z,13.47
2022-11-19T22:54:09.083Z,15.47
2022-11-19T22:56:37.669Z,15.43
2022-11-19T22:59:07.061Z,14.33
2022-11-19T23:01:36.564Z,13.77
2022-11-19T23:04:07.062Z,12.30
2022-11-19T23:06:37.262Z,13.70
2022-11-19T23:09:08.480Z,14.77
2022-11-19T23:11:55.044Z,13.00
2022-11-19T23:14:25.211Z,13.73
2022-11-19T23:16:54.376Z,13.63
2022-11-19T23:19:23.478Z,14.93
2022-11-19T23:21:52.155Z,15.00
2022-11-19T23:24:22.575Z,13.90
2022-11-19T23:26:50.965Z,14.03
2022-11-19T23:29:20.914Z,14.57
2022-11-19T23:31:50.030Z,13.63
2022-11-19T23:34:19.035Z,14.17
2022-11-19T23:36:47.418Z,14.40
2022-11-19T23:39:18.391Z,17.90
2022-11-19T23:41:48.634Z,17.97
2022-11-19T23:44:17.098Z,15.73
2022-11-19T23:46:47.021Z,16.70
2022-11-19T23:49:15.480Z,14.50
2022-11-19T23:51:44.964Z,15.77
2022-11-19T23:54:13.882Z,21.03
2022-11-19T23:56:43.408Z,18.93
2022-11-19T23:59:13.634Z,15.13
